Adriatic Id — VRFP6 — position and weather

sailwx.info

Track history (hours):
 
Tides and Currents Weather Stations Pressure Air Temp Water Temp Dewpoint Dewpoint Depression Visibility Wind Speed Wind Dir Waves Ship Positions

Adriatic Id

Last reported at 2014-Oct-23 11:09 UTC. Time now 2014-Oct-23 17:14 UTC.
Position N 49°57' W 003°06'.

Length 158 m; draft 9.3 m.

Type: Cargo ship. MMSI: 477559800.

Date/timePositionNaut miles runAvg speedWind from/ knotsBaromVisibWave heightAir tempDewpointWater temp
2014-Oct-23 11:09N 49°57' W 003°06'1012.8
2014-Oct-23 10:23N 50°00' W 002°52'7210.5
2014-Oct-23 03:29N 50°19' W 001°03'4614.1
2014-Oct-23 00:15N 50°30' E 000°07'1013.1
2014-Oct-22 23:29N 50°33' E 000°22'1111.9
2014-Oct-22 22:33N 50°37' E 000°38'1111.5
2014-Oct-22 21:33N 50°44' E 000°52'1211.3
2014-Oct-22 20:31N 50°50' E 001°08'1212.7
2014-Oct-22 19:33N 50°58' E 001°23'1515.0
2014-Oct-22 18:33N 51°09' E 001°39'1414.4
2014-Oct-22 17:34N 51°20' E 001°54'1110.5
2014-Oct-22 16:33N 51°23' E 002°10'1211.9
2014-Oct-22 15:33N 51°23' E 002°29'1110.8
2014-Oct-22 14:33N 51°22' E 002°46'1010.2
2014-Oct-22 13:33N 51°24' E 003°02'11 9.9
2014-Oct-22 12:29N 51°24' E 003°19'8 9.1
2014-Oct-22 11:33N 51°25' E 003°33'6 6.0
2014-Oct-22 10:33N 51°25' E 003°42'6 6.4
2014-Oct-22 09:34N 51°20' E 003°49'1 1.1
2014-Oct-22 08:33N 51°19' E 003°50'6 6.1
2014-Oct-22 07:34N 51°13' E 003°48'7 6.6
2014-Oct-22 06:33N 51°07' E 003°45'1 1.3
2014-Oct-22 05:34N 51°05' E 003°44'0 0.0
2014-Oct-22 04:33N 51°05' E 003°44'0 0.0
2014-Oct-22 03:33N 51°05' E 003°44'0 0.0
2014-Oct-22 02:33N 51°05' E 003°44'0 0.0
2014-Oct-22 01:34N 51°05' E 003°44'0 0.0
2014-Oct-22 00:33N 51°05' E 003°44'0 0.0
2014-Oct-21 23:34N 51°05' E 003°44'0 0.0
2014-Oct-21 22:33N 51°05' E 003°44'0 0.0
2014-Oct-21 21:33N 51°05' E 003°44'0 0.0
2014-Oct-21 20:33N 51°05' E 003°44'0 0.0
2014-Oct-21 19:33N 51°05' E 003°44'0 0.0
2014-Oct-21 18:34N 51°05' E 003°44'0 0.0
2014-Oct-21 17:33N 51°05' E 003°44'0 0.0
2014-Oct-21 16:33N 51°05' E 003°44'0 0.0
2014-Oct-21 15:34N 51°05' E 003°44'0 0.0
2014-Oct-21 14:33N 51°05' E 003°44'0 0.0
2014-Oct-21 13:33N 51°05' E 003°44'0 0.0
2014-Oct-21 12:33N 51°05' E 003°44'0 0.0
2014-Oct-21 11:33N 51°05' E 003°44'0 0.0
2014-Oct-21 10:33N 51°05' E 003°44'0 0.0
2014-Oct-21 09:26N 51°05' E 003°44'0 0.0
2014-Oct-21 08:33N 51°05' E 003°44'0 0.0
2014-Oct-21 07:34N 51°05' E 003°44'0 0.0
2014-Oct-21 06:31N 51°05' E 003°44'0 0.0
2014-Oct-21 05:33N 51°05' E 003°44'0 0.0
2014-Oct-21 04:33N 51°05' E 003°44'0 0.0
2014-Oct-21 03:34N 51°05' E 003°44'0 0.0
2014-Oct-21 02:33N 51°05' E 003°44'0 0.0
2014-Oct-21 01:34N 51°05' E 003°44'0 0.0
2014-Oct-21 00:34N 51°05' E 003°44'0 0.0
2014-Oct-20 23:34N 51°05' E 003°44'0 0.0
2014-Oct-20 22:34N 51°05' E 003°44'0 0.0
2014-Oct-20 21:29N 51°05' E 003°44'0 0.0
2014-Oct-20 20:33N 51°05' E 003°44'0 0.0
2014-Oct-20 19:33N 51°05' E 003°44'0 0.0
2014-Oct-20 18:34N 51°05' E 003°44'0 0.0
2014-Oct-20 17:33N 51°05' E 003°44'0 0.0
2014-Oct-20 16:34N 51°05' E 003°44'0 0.0
2014-Oct-20 15:33N 51°05' E 003°44'0 0.0
2014-Oct-20 14:33N 51°05' E 003°44'0 0.0
2014-Oct-20 13:33N 51°05' E 003°44'0 0.0
2014-Oct-20 12:34N 51°05' E 003°44'0 0.0
2014-Oct-20 11:34N 51°05' E 003°44'0 0.0
2014-Oct-20 10:34N 51°05' E 003°44'0 0.0
2014-Oct-20 09:33N 51°05' E 003°44'0 0.0
2014-Oct-20 08:32N 51°05' E 003°44'0 0.0
2014-Oct-20 07:33N 51°05' E 003°44'0 0.0
2014-Oct-20 06:31N 51°05' E 003°44'0 0.0
2014-Oct-20 05:34N 51°05' E 003°44'0 0.0
2014-Oct-20 04:33N 51°05' E 003°44'0 0.0
2014-Oct-20 03:34N 51°05' E 003°44'0 0.0
2014-Oct-20 02:33N 51°05' E 003°44'0 0.0
2014-Oct-20 01:34N 51°05' E 003°44'0 0.0
2014-Oct-20 00:33N 51°05' E 003°44'0 0.0
2014-Oct-19 23:34N 51°05' E 003°44'0 0.0
2014-Oct-19 22:33N 51°05' E 003°44'0 0.0
2014-Oct-19 21:27N 51°05' E 003°44'0 0.0
2014-Oct-19 20:34N 51°05' E 003°44'0 0.0
2014-Oct-19 19:33N 51°05' E 003°44'0 0.0
2014-Oct-19 18:34N 51°05' E 003°44'0 0.0
2014-Oct-19 17:34N 51°05' E 003°44'0 0.0
2014-Oct-19 16:33N 51°05' E 003°44'0 0.0
2014-Oct-19 15:34N 51°05' E 003°44'0 0.0
2014-Oct-19 14:33N 51°05' E 003°44'0 0.0
2014-Oct-19 13:34N 51°05' E 003°44'0 0.0
2014-Oct-19 12:33N 51°05' E 003°44'0 0.0
2014-Oct-19 11:31N 51°05' E 003°44'0 0.0
2014-Oct-19 10:34N 51°05' E 003°44'0 0.0
2014-Oct-19 09:34N 51°05' E 003°44'0 0.0
2014-Oct-19 08:31N 51°05' E 003°44'0 0.0
2014-Oct-19 07:34N 51°05' E 003°44'0 0.0
2014-Oct-19 06:32N 51°05' E 003°44'0 0.0
2014-Oct-19 05:34N 51°05' E 003°44'0 0.0
2014-Oct-19 04:33N 51°05' E 003°44'0 0.0
2014-Oct-19 03:33N 51°05' E 003°44'0 0.0
2014-Oct-19 02:33N 51°05' E 003°44'0 0.0
2014-Oct-19 01:34N 51°05' E 003°44'0 0.0
2014-Oct-19 00:33N 51°05' E 003°44'0 0.0
2014-Oct-18 23:27N 51°05' E 003°44'0 0.0
2014-Oct-18 22:33N 51°05' E 003°44'0 0.0
2014-Oct-18 21:34N 51°05' E 003°44'0 0.0
2014-Oct-18 20:34N 51°05' E 003°44'0 0.0
2014-Oct-18 19:34N 51°05' E 003°44'0 0.0
2014-Oct-18 18:33N 51°05' E 003°44'0 0.0
2014-Oct-18 17:33N 51°05' E 003°44'0 0.0
2014-Oct-18 16:33N 51°05' E 003°44'0 0.0
2014-Oct-18 15:33N 51°05' E 003°44'0 0.0
2014-Oct-18 14:34N 51°05' E 003°44'0 0.0
2014-Oct-18 13:34N 51°05' E 003°44'0 0.0
2014-Oct-18 12:33N 51°05' E 003°44'0 0.0
2014-Oct-18 11:32N 51°05' E 003°44'0 0.0
2014-Oct-18 10:33N 51°05' E 003°44'0 0.0
2014-Oct-18 09:34N 51°05' E 003°44'0 0.0
2014-Oct-18 08:34N 51°05' E 003°44'0 0.0
2014-Oct-18 07:33N 51°05' E 003°44'0 0.0
2014-Oct-18 06:33N 51°05' E 003°44'1 1.2
2014-Oct-18 05:33N 51°07' E 003°45'6 6.1
2014-Oct-18 04:33N 51°12' E 003°48'6 6.1
2014-Oct-18 03:33N 51°18' E 003°50'2 2.4
2014-Oct-18 02:34N 51°21' E 003°49'7 6.6
2014-Oct-18 01:33N 51°26' E 003°41'7 6.6
2014-Oct-18 00:33N 51°25' E 003°31'7 7.4
2014-Oct-17 23:33N 51°24' E 003°19'9 9.0
2014-Oct-17 22:33N 51°24' E 003°05'1010.4
2014-Oct-17 21:33N 51°22' E 002°48'9 8.4
2014-Oct-17 20:28N 51°21' E 002°34'2 1.7
2014-Oct-17 19:28N 51°20' E 002°32'0 0.0
2014-Oct-17 18:31N 51°20' E 002°32'0 0.0
2014-Oct-17 17:25N 51°20' E 002°32'0 0.1
2014-Oct-17 16:31N 51°20' E 002°32'0 0.0
2014-Oct-17 14:31N 51°20' E 002°32'0 0.0
2014-Oct-17 13:31N 51°20' E 002°32'0 0.0
2014-Oct-17 12:28N 51°20' E 002°32'0 0.0
2014-Oct-17 11:25N 51°20' E 002°32'0 0.0
2014-Oct-17 10:19N 51°20' E 002°32'0 0.0
2014-Oct-17 09:31N 51°20' E 002°32'0 0.0
2014-Oct-17 08:25N 51°20' E 002°32'0 0.0
2014-Oct-17 07:31N 51°20' E 002°32'0 0.0
2014-Oct-17 06:31N 51°20' E 002°32'0 0.0
2014-Oct-17 05:28N 51°20' E 002°32'0 0.0
2014-Oct-17 04:31N 51°20' E 002°32'0 0.0
2014-Oct-17 03:28N 51°20' E 002°32'0 0.1
2014-Oct-17 02:31N 51°20' E 002°32'0 0.1
2014-Oct-17 01:25N 51°20' E 002°32'0 0.0
2014-Oct-17 00:28N 51°20' E 002°32'0 0.0
2014-Oct-16 23:31N 51°20' E 002°32'0 0.0
2014-Oct-16 22:31N 51°20' E 002°32'0 0.0
2014-Oct-16 21:19N 51°20' E 002°32'0 0.0
2014-Oct-16 20:31N 51°20' E 002°32'0 0.0
2014-Oct-16 19:31N 51°20' E 002°32'0 0.0
2014-Oct-16 18:34N 51°20' E 002°32'0 0.0
2014-Oct-16 17:33N 51°20' E 002°32'0 0.0
2014-Oct-16 16:33N 51°20' E 002°32'0 0.0
2014-Oct-16 15:33N 51°20' E 002°32'0 0.0
2014-Oct-16 14:33N 51°20' E 002°32'0 0.0
2014-Oct-16 13:33N 51°20' E 002°32'0 0.0
2014-Oct-16 12:33N 51°20' E 002°32'0 0.0
2014-Oct-16 11:33N 51°20' E 002°32'0 0.0
2014-Oct-16 10:33N 51°20' E 002°32'0 0.0
2014-Oct-16 09:33N 51°20' E 002°32'0 0.0
2014-Oct-16 08:33N 51°20' E 002°32'0 0.2
2014-Oct-16 07:33N 51°20' E 002°32'4 4.4
2014-Oct-16 06:33N 51°21' E 002°25'1212.4
2014-Oct-16 05:34N 51°21' E 002°06'8 8.2
2014-Oct-16 04:34N 51°29' E 002°05'1211.8
2014-Oct-16 03:34N 51°39' E 002°16'1312.5
2014-Oct-16 02:33N 51°49' E 002°27'103 9.1
2014-Oct-15 15:20N 53°28' E 001°39'3611.6
2014-Oct-15 12:12N 53°34' E 000°39'811.8
2014-Oct-15 11:33N 53°33' E 000°26'10 9.6
2014-Oct-15 10:34N 53°33' E 000°10'1111.2
2014-Oct-15 09:33N 53°37' W 000°08'2 2.3
2014-Oct-15 08:32N 53°38' W 000°12'0 0.1
2014-Oct-15 07:29N 53°38' W 000°11'0 0.0
2014-Oct-15 06:32N 53°38' W 000°11'0 0.0
2014-Oct-15 05:29N 53°38' W 000°11'0 0.0
2014-Oct-15 04:23N 53°38' W 000°11'0 0.0
2014-Oct-15 03:32N 53°38' W 000°11'0 0.0
2014-Oct-15 02:26N 53°38' W 000°11'0 0.0
2014-Oct-15 01:32N 53°38' W 000°11'0 0.0
2014-Oct-15 00:29N 53°38' W 000°11'0 0.0
2014-Oct-14 23:32N 53°38' W 000°11'0 0.0
2014-Oct-14 22:32N 53°38' W 000°11'0 0.0
2014-Oct-14 21:29N 53°38' W 000°11'0 0.0
2014-Oct-14 20:32N 53°38' W 000°11'0 0.0
2014-Oct-14 19:32N 53°38' W 000°11'0 0.0
2014-Oct-14 18:31N 53°38' W 000°11'0 0.0
2014-Oct-14 17:31N 53°38' W 000°11'0 0.0
2014-Oct-14 16:31N 53°38' W 000°11'0 0.0
2014-Oct-14 15:31N 53°38' W 000°11'0 0.0
2014-Oct-14 14:31N 53°38' W 000°11'0 0.0
2014-Oct-14 13:31N 53°38' W 000°11'0 0.0
2014-Oct-14 12:31N 53°38' W 000°11'0 0.0
2014-Oct-14 11:31N 53°38' W 000°11'0 0.0
2014-Oct-14 10:31N 53°38' W 000°11'0 0.0
2014-Oct-14 09:31N 53°38' W 000°11'0 0.0
2014-Oct-14 08:31N 53°38' W 000°11'0 0.0
2014-Oct-14 07:31N 53°38' W 000°11'0 0.0
2014-Oct-14 06:31N 53°38' W 000°11'0 0.0
2014-Oct-14 05:31N 53°38' W 000°11'0 0.0
2014-Oct-14 04:31N 53°38' W 000°11'0 0.0
2014-Oct-14 03:25N 53°38' W 000°11'0 0.0
2014-Oct-14 02:28N 53°38' W 000°11'0 0.0
2014-Oct-14 01:31N 53°38' W 000°11'0 0.0
2014-Oct-14 00:22N 53°38' W 000°11'0 0.0
2014-Oct-13 23:28N 53°38' W 000°11'0 0.0
2014-Oct-13 22:28N 53°38' W 000°11'0 0.0
2014-Oct-13 21:31N 53°38' W 000°11'0 0.0
2014-Oct-13 20:31N 53°38' W 000°11'0 0.0
2014-Oct-13 19:28N 53°38' W 000°11'0 0.0
2014-Oct-13 18:31N 53°38' W 000°11'0 0.0
2014-Oct-13 17:28N 53°38' W 000°11'0 0.0
2014-Oct-13 16:31N 53°38' W 000°11'0 0.0
2014-Oct-13 15:31N 53°38' W 000°11'0 0.0
2014-Oct-13 14:31N 53°38' W 000°11'0 0.0
2014-Oct-13 13:31N 53°38' W 000°11'0 0.0
2014-Oct-13 12:31N 53°38' W 000°11'0 0.0
2014-Oct-13 11:31N 53°38' W 000°11'  
Track history (hours):
 
Tides and Currents Weather Stations Pressure Air Temp Water Temp Dewpoint Dewpoint Depression Visibility Wind Speed Wind Dir Waves Ship Positions

Adriatic Id

Last reported at 2014-Oct-23 11:09 UTC. Time now 2014-Oct-23 17:14 UTC.
Position N 49°57' W 003°06'.

Length 158 m; draft 9.3 m.

Type: Cargo ship. MMSI: 477559800.

Date/timePositionNaut miles runAvg speedWind from/ knotsBaromVisibWave heightAir tempDewpointWater temp
2014-Oct-23 11:09N 49°57' W 003°06'1012.8
2014-Oct-23 10:23N 50°00' W 002°52'7210.5
2014-Oct-23 03:29N 50°19' W 001°03'4614.1
2014-Oct-23 00:15N 50°30' E 000°07'1013.1
2014-Oct-22 23:29N 50°33' E 000°22'1111.9
2014-Oct-22 22:33N 50°37' E 000°38'1111.5
2014-Oct-22 21:33N 50°44' E 000°52'1211.3
2014-Oct-22 20:31N 50°50' E 001°08'1212.7
2014-Oct-22 19:33N 50°58' E 001°23'1515.0
2014-Oct-22 18:33N 51°09' E 001°39'1414.4
2014-Oct-22 17:34N 51°20' E 001°54'1110.5
2014-Oct-22 16:33N 51°23' E 002°10'1211.9
2014-Oct-22 15:33N 51°23' E 002°29'1110.8
2014-Oct-22 14:33N 51°22' E 002°46'1010.2
2014-Oct-22 13:33N 51°24' E 003°02'11 9.9
2014-Oct-22 12:29N 51°24' E 003°19'8 9.1
2014-Oct-22 11:33N 51°25' E 003°33'6 6.0
2014-Oct-22 10:33N 51°25' E 003°42'6 6.4
2014-Oct-22 09:34N 51°20' E 003°49'1 1.1
2014-Oct-22 08:33N 51°19' E 003°50'6 6.1
2014-Oct-22 07:34N 51°13' E 003°48'7 6.6
2014-Oct-22 06:33N 51°07' E 003°45'1 1.3
2014-Oct-22 05:34N 51°05' E 003°44'0 0.0
2014-Oct-22 04:33N 51°05' E 003°44'0 0.0
2014-Oct-22 03:33N 51°05' E 003°44'0 0.0
2014-Oct-22 02:33N 51°05' E 003°44'0 0.0
2014-Oct-22 01:34N 51°05' E 003°44'0 0.0
2014-Oct-22 00:33N 51°05' E 003°44'0 0.0
2014-Oct-21 23:34N 51°05' E 003°44'0 0.0
2014-Oct-21 22:33N 51°05' E 003°44'0 0.0
2014-Oct-21 21:33N 51°05' E 003°44'0 0.0
2014-Oct-21 20:33N 51°05' E 003°44'0 0.0
2014-Oct-21 19:33N 51°05' E 003°44'0 0.0
2014-Oct-21 18:34N 51°05' E 003°44'0 0.0
2014-Oct-21 17:33N 51°05' E 003°44'0 0.0
2014-Oct-21 16:33N 51°05' E 003°44'0 0.0
2014-Oct-21 15:34N 51°05' E 003°44'0 0.0
2014-Oct-21 14:33N 51°05' E 003°44'0 0.0
2014-Oct-21 13:33N 51°05' E 003°44'0 0.0
2014-Oct-21 12:33N 51°05' E 003°44'0 0.0
2014-Oct-21 11:33N 51°05' E 003°44'0 0.0
2014-Oct-21 10:33N 51°05' E 003°44'0 0.0
2014-Oct-21 09:26N 51°05' E 003°44'0 0.0
2014-Oct-21 08:33N 51°05' E 003°44'0 0.0
2014-Oct-21 07:34N 51°05' E 003°44'0 0.0
2014-Oct-21 06:31N 51°05' E 003°44'0 0.0
2014-Oct-21 05:33N 51°05' E 003°44'0 0.0
2014-Oct-21 04:33N 51°05' E 003°44'0 0.0
2014-Oct-21 03:34N 51°05' E 003°44'0 0.0
2014-Oct-21 02:33N 51°05' E 003°44'0 0.0
2014-Oct-21 01:34N 51°05' E 003°44'0 0.0
2014-Oct-21 00:34N 51°05' E 003°44'0 0.0
2014-Oct-20 23:34N 51°05' E 003°44'0 0.0
2014-Oct-20 22:34N 51°05' E 003°44'0 0.0
2014-Oct-20 21:29N 51°05' E 003°44'0 0.0
2014-Oct-20 20:33N 51°05' E 003°44'0 0.0
2014-Oct-20 19:33N 51°05' E 003°44'0 0.0
2014-Oct-20 18:34N 51°05' E 003°44'0 0.0
2014-Oct-20 17:33N 51°05' E 003°44'0 0.0
2014-Oct-20 16:34N 51°05' E 003°44'0 0.0
2014-Oct-20 15:33N 51°05' E 003°44'0 0.0
2014-Oct-20 14:33N 51°05' E 003°44'0 0.0
2014-Oct-20 13:33N 51°05' E 003°44'0 0.0
2014-Oct-20 12:34N 51°05' E 003°44'0 0.0
2014-Oct-20 11:34N 51°05' E 003°44'0 0.0
2014-Oct-20 10:34N 51°05' E 003°44'0 0.0
2014-Oct-20 09:33N 51°05' E 003°44'0 0.0
2014-Oct-20 08:32N 51°05' E 003°44'0 0.0
2014-Oct-20 07:33N 51°05' E 003°44'0 0.0
2014-Oct-20 06:31N 51°05' E 003°44'0 0.0
2014-Oct-20 05:34N 51°05' E 003°44'0 0.0
2014-Oct-20 04:33N 51°05' E 003°44'0 0.0
2014-Oct-20 03:34N 51°05' E 003°44'0 0.0
2014-Oct-20 02:33N 51°05' E 003°44'0 0.0
2014-Oct-20 01:34N 51°05' E 003°44'0 0.0
2014-Oct-20 00:33N 51°05' E 003°44'0 0.0
2014-Oct-19 23:34N 51°05' E 003°44'0 0.0
2014-Oct-19 22:33N 51°05' E 003°44'0 0.0
2014-Oct-19 21:27N 51°05' E 003°44'0 0.0
2014-Oct-19 20:34N 51°05' E 003°44'0 0.0
2014-Oct-19 19:33N 51°05' E 003°44'0 0.0
2014-Oct-19 18:34N 51°05' E 003°44'0 0.0
2014-Oct-19 17:34N 51°05' E 003°44'0 0.0
2014-Oct-19 16:33N 51°05' E 003°44'0 0.0
2014-Oct-19 15:34N 51°05' E 003°44'0 0.0
2014-Oct-19 14:33N 51°05' E 003°44'0 0.0
2014-Oct-19 13:34N 51°05' E 003°44'0 0.0
2014-Oct-19 12:33N 51°05' E 003°44'0 0.0
2014-Oct-19 11:31N 51°05' E 003°44'0 0.0
2014-Oct-19 10:34N 51°05' E 003°44'0 0.0
2014-Oct-19 09:34N 51°05' E 003°44'0 0.0
2014-Oct-19 08:31N 51°05' E 003°44'0 0.0
2014-Oct-19 07:34N 51°05' E 003°44'0 0.0
2014-Oct-19 06:32N 51°05' E 003°44'0 0.0
2014-Oct-19 05:34N 51°05' E 003°44'0 0.0
2014-Oct-19 04:33N 51°05' E 003°44'0 0.0
2014-Oct-19 03:33N 51°05' E 003°44'0 0.0
2014-Oct-19 02:33N 51°05' E 003°44'0 0.0
2014-Oct-19 01:34N 51°05' E 003°44'0 0.0
2014-Oct-19 00:33N 51°05' E 003°44'0 0.0
2014-Oct-18 23:27N 51°05' E 003°44'0 0.0
2014-Oct-18 22:33N 51°05' E 003°44'0 0.0
2014-Oct-18 21:34N 51°05' E 003°44'0 0.0
2014-Oct-18 20:34N 51°05' E 003°44'0 0.0
2014-Oct-18 19:34N 51°05' E 003°44'0 0.0
2014-Oct-18 18:33N 51°05' E 003°44'0 0.0
2014-Oct-18 17:33N 51°05' E 003°44'0 0.0
2014-Oct-18 16:33N 51°05' E 003°44'0 0.0
2014-Oct-18 15:33N 51°05' E 003°44'0 0.0
2014-Oct-18 14:34N 51°05' E 003°44'0 0.0
2014-Oct-18 13:34N 51°05' E 003°44'0 0.0
2014-Oct-18 12:33N 51°05' E 003°44'0 0.0
2014-Oct-18 11:32N 51°05' E 003°44'0 0.0
2014-Oct-18 10:33N 51°05' E 003°44'0 0.0
2014-Oct-18 09:34N 51°05' E 003°44'0 0.0
2014-Oct-18 08:34N 51°05' E 003°44'0 0.0
2014-Oct-18 07:33N 51°05' E 003°44'0 0.0
2014-Oct-18 06:33N 51°05' E 003°44'1 1.2
2014-Oct-18 05:33N 51°07' E 003°45'6 6.1
2014-Oct-18 04:33N 51°12' E 003°48'6 6.1
2014-Oct-18 03:33N 51°18' E 003°50'2 2.4
2014-Oct-18 02:34N 51°21' E 003°49'7 6.6
2014-Oct-18 01:33N 51°26' E 003°41'7 6.6
2014-Oct-18 00:33N 51°25' E 003°31'7 7.4
2014-Oct-17 23:33N 51°24' E 003°19'9 9.0
2014-Oct-17 22:33N 51°24' E 003°05'1010.4
2014-Oct-17 21:33N 51°22' E 002°48'9 8.4
2014-Oct-17 20:28N 51°21' E 002°34'2 1.7
2014-Oct-17 19:28N 51°20' E 002°32'0 0.0
2014-Oct-17 18:31N 51°20' E 002°32'0 0.0
2014-Oct-17 17:25N 51°20' E 002°32'0 0.1
2014-Oct-17 16:31N 51°20' E 002°32'0 0.0
2014-Oct-17 14:31N 51°20' E 002°32'0 0.0
2014-Oct-17 13:31N 51°20' E 002°32'0 0.0
2014-Oct-17 12:28N 51°20' E 002°32'0 0.0
2014-Oct-17 11:25N 51°20' E 002°32'0 0.0
2014-Oct-17 10:19N 51°20' E 002°32'0 0.0
2014-Oct-17 09:31N 51°20' E 002°32'0 0.0
2014-Oct-17 08:25N 51°20' E 002°32'0 0.0
2014-Oct-17 07:31N 51°20' E 002°32'0 0.0
2014-Oct-17 06:31N 51°20' E 002°32'0 0.0
2014-Oct-17 05:28N 51°20' E 002°32'0 0.0
2014-Oct-17 04:31N 51°20' E 002°32'0 0.0
2014-Oct-17 03:28N 51°20' E 002°32'0 0.1
2014-Oct-17 02:31N 51°20' E 002°32'0 0.1
2014-Oct-17 01:25N 51°20' E 002°32'0 0.0
2014-Oct-17 00:28N 51°20' E 002°32'0 0.0
2014-Oct-16 23:31N 51°20' E 002°32'0 0.0
2014-Oct-16 22:31N 51°20' E 002°32'0 0.0
2014-Oct-16 21:19N 51°20' E 002°32'0 0.0
2014-Oct-16 20:31N 51°20' E 002°32'0 0.0
2014-Oct-16 19:31N 51°20' E 002°32'0 0.0
2014-Oct-16 18:34N 51°20' E 002°32'0 0.0
2014-Oct-16 17:33N 51°20' E 002°32'0 0.0
2014-Oct-16 16:33N 51°20' E 002°32'0 0.0
2014-Oct-16 15:33N 51°20' E 002°32'0 0.0
2014-Oct-16 14:33N 51°20' E 002°32'0 0.0
2014-Oct-16 13:33N 51°20' E 002°32'0 0.0
2014-Oct-16 12:33N 51°20' E 002°32'0 0.0
2014-Oct-16 11:33N 51°20' E 002°32'0 0.0
2014-Oct-16 10:33N 51°20' E 002°32'0 0.0
2014-Oct-16 09:33N 51°20' E 002°32'0 0.0
2014-Oct-16 08:33N 51°20' E 002°32'0 0.2
2014-Oct-16 07:33N 51°20' E 002°32'4 4.4
2014-Oct-16 06:33N 51°21' E 002°25'1212.4
2014-Oct-16 05:34N 51°21' E 002°06'8 8.2
2014-Oct-16 04:34N 51°29' E 002°05'1211.8
2014-Oct-16 03:34N 51°39' E 002°16'1312.5
2014-Oct-16 02:33N 51°49' E 002°27'103 9.1
2014-Oct-15 15:20N 53°28' E 001°39'3611.6
2014-Oct-15 12:12N 53°34' E 000°39'811.8
2014-Oct-15 11:33N 53°33' E 000°26'10 9.6
2014-Oct-15 10:34N 53°33' E 000°10'1111.2
2014-Oct-15 09:33N 53°37' W 000°08'2 2.3
2014-Oct-15 08:32N 53°38' W 000°12'0 0.1
2014-Oct-15 07:29N 53°38' W 000°11'0 0.0
2014-Oct-15 06:32N 53°38' W 000°11'0 0.0
2014-Oct-15 05:29N 53°38' W 000°11'0 0.0
2014-Oct-15 04:23N 53°38' W 000°11'0 0.0
2014-Oct-15 03:32N 53°38' W 000°11'0 0.0
2014-Oct-15 02:26N 53°38' W 000°11'0 0.0
2014-Oct-15 01:32N 53°38' W 000°11'0 0.0
2014-Oct-15 00:29N 53°38' W 000°11'0 0.0
2014-Oct-14 23:32N 53°38' W 000°11'0 0.0
2014-Oct-14 22:32N 53°38' W 000°11'0 0.0
2014-Oct-14 21:29N 53°38' W 000°11'0 0.0
2014-Oct-14 20:32N 53°38' W 000°11'0 0.0
2014-Oct-14 19:32N 53°38' W 000°11'0 0.0
2014-Oct-14 18:31N 53°38' W 000°11'0 0.0
2014-Oct-14 17:31N 53°38' W 000°11'0 0.0
2014-Oct-14 16:31N 53°38' W 000°11'0 0.0
2014-Oct-14 15:31N 53°38' W 000°11'0 0.0
2014-Oct-14 14:31N 53°38' W 000°11'0 0.0
2014-Oct-14 13:31N 53°38' W 000°11'0 0.0
2014-Oct-14 12:31N 53°38' W 000°11'0 0.0
2014-Oct-14 11:31N 53°38' W 000°11'0 0.0
2014-Oct-14 10:31N 53°38' W 000°11'0 0.0
2014-Oct-14 09:31N 53°38' W 000°11'0 0.0
2014-Oct-14 08:31N 53°38' W 000°11'0 0.0
2014-Oct-14 07:31N 53°38' W 000°11'0 0.0
2014-Oct-14 06:31N 53°38' W 000°11'0 0.0
2014-Oct-14 05:31N 53°38' W 000°11'0 0.0
2014-Oct-14 04:31N 53°38' W 000°11'0 0.0
2014-Oct-14 03:25N 53°38' W 000°11'0 0.0
2014-Oct-14 02:28N 53°38' W 000°11'0 0.0
2014-Oct-14 01:31N 53°38' W 000°11'0 0.0
2014-Oct-14 00:22N 53°38' W 000°11'0 0.0
2014-Oct-13 23:28N 53°38' W 000°11'0 0.0
2014-Oct-13 22:28N 53°38' W 000°11'0 0.0
2014-Oct-13 21:31N 53°38' W 000°11'0 0.0
2014-Oct-13 20:31N 53°38' W 000°11'0 0.0
2014-Oct-13 19:28N 53°38' W 000°11'0 0.0
2014-Oct-13 18:31N 53°38' W 000°11'0 0.0
2014-Oct-13 17:28N 53°38' W 000°11'0 0.0
2014-Oct-13 16:31N 53°38' W 000°11'0 0.0
2014-Oct-13 15:31N 53°38' W 000°11'0 0.0
2014-Oct-13 14:31N 53°38' W 000°11'0 0.0
2014-Oct-13 13:31N 53°38' W 000°11'0 0.0
2014-Oct-13 12:31N 53°38' W 000°11'0 0.0
2014-Oct-13 11:31N 53°38' W 000°11'  

Dump ship's entire track history